EGBB Airport Information

Runway Information
Runway 15 Length 8527 ft width 151 ft
Elevation 305 ft Threshold 1069 ft Heading 148
Runway 33 Length 8527 ft Width 151 ft
Elevation 328 ft Threshold 987 ft Heading 328
Airport Frequencies
Type APP Name APP Frequency 118.05 MHZ
Type ATIS Name ATIS Frequency 136.02 MHZ
Type GND Name GND Frequency 121.8 MHZ
Type TWR Name TWR Frequency 118.3 MHZ
Airport Navaids
Type NDB Name Birmingham Frequency 406 KHZ
Airport Weather Information & NOTAM
ADDS - METARS form results

(1856 UTC 23 May 2019)
Data provider http://aviationweather.gov/metar/data/
 
METAR text: EGBB 231850Z 29007KT 260V340 CAVOK 20/05 Q1014
Conditions at: EGBB (BIRMINGHAM AIRPO, GB) observed 1850 UTC 23 May 2019
Temperature: 20.0°C (68°F)
Dewpoint: 5.0°C (41°F) [RH = 37%]
Pressure (altimeter): 29.94 inches Hg (1014.0 mb)
Winds: from the WNW (290 degrees) at 8 MPH (7 knots; 3.6 m/s)
Visibility: 6 or more miles (10+ km)
Ceiling: ceiling and visibility are OK
Clouds: unknown
Weather: no significant weather observed at this time

METAR text: EGBB 231820Z 31007KT 270V330 CAVOK 20/05 Q1014
Conditions at: EGBB (BIRMINGHAM AIRPO, GB) observed 1820 UTC 23 May 2019
Temperature: 20.0°C (68°F)
Dewpoint: 5.0°C (41°F) [RH = 37%]
Pressure (altimeter): 29.94 inches Hg (1014.0 mb)
Winds: from the NW (310 degrees) at 8 MPH (7 knots; 3.6 m/s)
Visibility: 6 or more miles (10+ km)
Ceiling: ceiling and visibility are OK
Clouds: unknown
Weather: no significant weather observed at this time

Forecast for: EGBB (BIRMINGHAM AIRPO, GB)
Text: TAF EGBB 231651Z 2318/2418 30006KT CAVOK
Forecast period: 1800 UTC 23 May 2019 to 1800 UTC 24 May 2019
Forecast type: FROM: standard forecast or significant change
Winds: from the WNW (300 degrees) at 7 MPH (6 knots; 3.1 m/s)
Visibility: 6 or more miles 10+ km)
Ceiling: unknown
Clouds: missing
Weather: NSW  (no significant weather)
Text: TEMPO 2410/2418 BKN030
Forecast period: 1000 to 1800 UTC 24 May 2019
Forecast type: TEMPORARY: The following changes expected for less than half the time period
Visibility: missing
Ceiling: 3000 feet AGL
Clouds: broken clouds at 3000 feet AGL
Weather: no significant weather forecast for this period
Text: PROB30
Forecast period: 1300 to 1800 UTC 24 May 2019
Forecast type: TEMPORARY: The following changes expected for less than half the time period
Visibility: 2.49 miles (4.01 km)
Ceiling: unknown
Clouds: missing
Weather: +SHRA  (heavy rain showers)